createdAt,value
2018-09-11T00:01:42.843Z,46.42
2018-09-11T00:04:13.636Z,46.38
2018-09-11T00:06:42.815Z,46.11
2018-09-11T00:09:13.496Z,46.14
2018-09-11T00:11:43.315Z,46.50
2018-09-11T00:14:12.461Z,46.30
2018-09-11T00:16:41.738Z,46.55
2018-09-11T00:19:10.807Z,46.28
2018-09-11T00:21:39.879Z,46.23
2018-09-11T00:24:09.027Z,46.44
2018-09-11T00:26:38.152Z,46.42
2018-09-11T00:29:07.225Z,46.48
2018-09-11T00:31:36.303Z,46.63
2018-09-11T00:34:05.432Z,46.51
2018-09-11T00:36:34.523Z,46.24
2018-09-11T00:39:03.816Z,46.47
2018-09-11T00:41:32.878Z,46.71
2018-09-11T00:44:01.931Z,46.35
2018-09-11T00:46:31.134Z,46.59
2018-09-11T00:49:00.312Z,46.50
2018-09-11T00:51:29.396Z,46.78
2018-09-11T00:53:58.518Z,46.53
2018-09-11T00:56:27.582Z,46.55
2018-09-11T00:58:56.694Z,46.41
2018-09-11T01:01:25.809Z,46.16
2018-09-11T01:03:55.027Z,46.75
2018-09-11T01:06:24.180Z,46.51
2018-09-11T01:08:53.488Z,46.61
2018-09-11T01:11:22.523Z,46.12
2018-09-11T01:13:51.595Z,46.63
2018-09-11T01:16:20.655Z,46.38
2018-09-11T01:18:49.860Z,46.79
2018-09-11T01:21:19.247Z,46.39
2018-09-11T01:23:48.371Z,46.33
2018-09-11T01:26:17.443Z,46.79
2018-09-11T01:28:46.573Z,46.74
2018-09-11T01:31:15.819Z,46.55
2018-09-11T01:33:44.936Z,46.79
2018-09-11T01:36:14.116Z,46.79
2018-09-11T01:38:43.264Z,46.50
2018-09-11T01:41:12.363Z,46.71
2018-09-11T01:43:41.514Z,46.63
2018-09-11T01:46:10.610Z,46.63
2018-09-11T01:48:39.712Z,46.69
2018-09-11T01:51:08.828Z,46.80
2018-09-11T01:53:37.907Z,46.71
2018-09-11T01:56:06.975Z,46.52
2018-09-11T01:58:36.097Z,46.71
2018-09-11T02:01:05.199Z,46.75
2018-09-11T02:03:34.259Z,46.93
2018-09-11T02:06:03.512Z,46.67
2018-09-11T02:08:32.589Z,46.74
2018-09-11T02:11:01.707Z,46.57
2018-09-11T02:13:30.743Z,46.75
2018-09-11T02:15:59.875Z,46.51
2018-09-11T02:18:28.994Z,46.54
2018-09-11T02:20:58.114Z,46.50
2018-09-11T02:23:27.267Z,46.75
2018-09-11T02:25:56.310Z,46.44
2018-09-11T02:28:25.582Z,46.55
2018-09-11T02:30:54.672Z,46.77
2018-09-11T02:33:23.771Z,46.99
2018-09-11T02:35:52.891Z,46.90
2018-09-11T02:38:22.164Z,46.59
2018-09-11T02:40:51.241Z,46.76
2018-09-11T02:43:20.357Z,46.64
2018-09-11T02:45:49.466Z,46.87
2018-09-11T02:48:18.542Z,46.51
2018-09-11T02:50:47.625Z,47.00
2018-09-11T02:53:16.724Z,46.82
2018-09-11T02:55:46.044Z,46.84
2018-09-11T02:58:15.106Z,46.63
2018-09-11T03:00:44.247Z,46.63
2018-09-11T03:03:13.310Z,46.50
2018-09-11T03:05:42.416Z,46.81
2018-09-11T03:08:11.484Z,46.94
2018-09-11T03:10:40.618Z,46.91
2018-09-11T03:13:09.802Z,46.62
2018-09-11T03:15:38.869Z,46.50
2018-09-11T03:18:08.308Z,47.07
2018-09-11T03:20:37.383Z,47.04
2018-09-11T03:23:06.486Z,46.83
2018-09-11T03:25:35.583Z,47.11
2018-09-11T03:28:04.690Z,46.95
2018-09-11T03:30:33.766Z,46.80
2018-09-11T03:33:02.860Z,47.10
2018-09-11T03:35:31.948Z,47.02
2018-09-11T03:38:01.085Z,47.06
2018-09-11T03:40:30.202Z,46.82
2018-09-11T03:42:59.419Z,46.80
2018-09-11T03:45:28.478Z,46.75
2018-09-11T03:47:57.580Z,46.72
2018-09-11T03:50:26.666Z,46.85
2018-09-11T03:52:55.722Z,47.24
2018-09-11T03:55:24.875Z,46.73
2018-09-11T03:57:54.025Z,47.19
2018-09-11T04:00:23.127Z,47.14
2018-09-11T04:02:52.202Z,46.58
2018-09-11T04:05:21.409Z,47.10
2018-09-11T04:07:50.637Z,46.94
2018-09-11T04:10:19.720Z,47.36
2018-09-11T04:12:48.694Z,47.33
2018-09-11T04:15:17.831Z,47.42
2018-09-11T04:17:46.883Z,47.42
2018-09-11T04:20:16.025Z,47.25
2018-09-11T04:22:45.094Z,47.44
2018-09-11T04:25:14.218Z,47.54
2018-09-11T04:27:43.206Z,47.37
2018-09-11T04:30:12.290Z,47.43
2018-09-11T04:32:41.392Z,47.31
2018-09-11T04:35:10.480Z,47.20
2018-09-11T04:37:39.868Z,47.44
2018-09-11T04:40:11.913Z,47.18
2018-09-11T04:42:41.148Z,47.28
2018-09-11T04:45:10.362Z,47.04
2018-09-11T04:47:39.422Z,47.12
2018-09-11T04:50:08.423Z,47.49
2018-09-11T04:52:37.488Z,47.42
2018-09-11T04:55:06.630Z,47.08
2018-09-11T04:57:35.782Z,47.43
2018-09-11T05:00:04.797Z,47.40
2018-09-11T05:02:33.891Z,47.36
2018-09-11T05:05:03.033Z,47.51
2018-09-11T05:07:32.091Z,47.28
2018-09-11T05:10:01.195Z,47.16
2018-09-11T05:12:30.327Z,47.27
2018-09-11T05:14:59.407Z,47.11
2018-09-11T05:17:28.501Z,47.32
2018-09-11T05:19:57.601Z,47.36
2018-09-11T05:22:26.678Z,47.62
2018-09-11T05:24:55.762Z,47.46
2018-09-11T05:27:24.976Z,47.23
2018-09-11T05:29:54.214Z,47.62
2018-09-11T05:32:23.222Z,47.37
2018-09-11T05:34:52.351Z,47.28
2018-09-11T05:37:21.665Z,47.22
2018-09-11T05:39:50.833Z,47.64
2018-09-11T05:42:19.954Z,47.53
2018-09-11T05:44:48.929Z,47.42
2018-09-11T05:47:18.073Z,47.57
2018-09-11T05:49:47.346Z,47.79
2018-09-11T05:52:16.422Z,47.51
2018-09-11T05:54:45.510Z,47.60
2018-09-11T05:57:14.531Z,47.46
2018-09-11T05:59:43.642Z,47.67
2018-09-11T06:02:12.710Z,47.53
2018-09-11T06:04:41.829Z,47.49
2018-09-11T06:07:11.034Z,47.40
2018-09-11T06:09:40.112Z,47.75
2018-09-11T06:12:09.224Z,47.53
2018-09-11T06:14:38.210Z,47.58
2018-09-11T06:17:07.284Z,48.13
2018-09-11T06:19:36.398Z,47.44
2018-09-11T06:22:05.390Z,47.56
2018-09-11T06:24:34.492Z,47.77
2018-09-11T06:27:03.604Z,47.70
2018-09-11T06:29:32.902Z,47.49
2018-09-11T06:32:01.984Z,47.99
2018-09-11T06:34:30.992Z,47.60
2018-09-11T06:37:00.101Z,47.96
2018-09-11T06:39:29.276Z,47.69
2018-09-11T06:41:58.315Z,47.80
2018-09-11T06:44:27.465Z,47.73
2018-09-11T06:46:56.463Z,47.94
2018-09-11T06:49:25.736Z,47.61
2018-09-11T06:51:54.845Z,47.64
2018-09-11T06:54:23.936Z,47.72
2018-09-11T06:56:53.064Z,48.04
2018-09-11T06:59:22.223Z,47.95
2018-09-11T07:01:51.274Z,47.80
2018-09-11T07:04:20.504Z,47.90
2018-09-11T07:06:49.543Z,47.72
2018-09-11T07:09:28.475Z,48.05
2018-09-11T07:11:57.638Z,47.95
2018-09-11T07:14:26.645Z,47.65
2018-09-11T07:16:55.908Z,47.71
2018-09-11T07:19:25.080Z,47.99
2018-09-11T07:21:55.146Z,48.00
2018-09-11T07:24:24.299Z,47.78
2018-09-11T07:26:53.397Z,48.12
2018-09-11T07:29:22.584Z,47.72
2018-09-11T07:31:51.782Z,47.82
2018-09-11T07:34:20.936Z,47.96
2018-09-11T07:36:56.396Z,48.13
2018-09-11T07:39:25.409Z,48.25
2018-09-11T07:41:54.459Z,48.02
2018-09-11T07:44:23.776Z,47.92
2018-09-11T07:46:52.907Z,48.13
2018-09-11T07:49:22.078Z,48.00
2018-09-11T07:51:51.180Z,48.64
2018-09-11T07:54:20.290Z,48.36
2018-09-11T07:56:49.383Z,48.29
2018-09-11T07:59:18.471Z,48.20
2018-09-11T08:01:48.635Z,48.09
2018-09-11T08:04:17.783Z,47.92
2018-09-11T08:06:46.887Z,47.93
2018-09-11T08:09:15.987Z,48.14
2018-09-11T08:11:45.085Z,47.92
2018-09-11T08:14:14.280Z,48.29
2018-09-11T08:16:43.603Z,47.85
2018-09-11T08:19:12.883Z,48.01
2018-09-11T08:21:41.983Z,47.88
2018-09-11T08:24:11.103Z,48.12
2018-09-11T08:26:40.271Z,48.06
2018-09-11T08:29:09.507Z,47.77
2018-09-11T08:31:38.771Z,47.81
2018-09-11T08:34:07.867Z,47.71
2018-09-11T08:36:37.051Z,47.75
2018-09-11T08:39:08.588Z,48.17
2018-09-11T08:41:37.752Z,47.94
2018-09-11T08:44:06.909Z,47.85
2018-09-11T08:46:36.039Z,47.83
2018-09-11T08:49:05.344Z,48.10
2018-09-11T08:51:34.487Z,47.84
2018-09-11T08:54:03.682Z,47.81
2018-09-11T08:56:32.695Z,48.13
2018-09-11T08:59:01.784Z,47.97
2018-09-11T09:01:30.876Z,47.73
2018-09-11T09:03:59.987Z,47.99
2018-09-11T09:06:29.060Z,48.13
2018-09-11T09:08:58.464Z,48.02
2018-09-11T09:11:27.549Z,47.69
2018-09-11T09:13:56.784Z,48.08
2018-09-11T09:16:25.852Z,48.13
2018-09-11T09:18:54.936Z,48.07
2018-09-11T09:21:24.055Z,48.02
2018-09-11T09:23:53.166Z,48.13
2018-09-11T09:26:22.200Z,47.91
2018-09-11T09:28:51.339Z,48.32
2018-09-11T09:31:20.463Z,48.29
2018-09-11T09:33:49.832Z,48.16
2018-09-11T09:36:18.823Z,47.77
2018-09-11T09:38:47.973Z,47.92
2018-09-11T09:41:17.042Z,48.09
2018-09-11T09:43:46.113Z,47.73
2018-09-11T09:46:15.440Z,47.79
2018-09-11T09:48:44.496Z,47.76
2018-09-11T09:51:13.615Z,47.79
2018-09-11T09:53:42.758Z,47.87
2018-09-11T09:56:11.814Z,47.68
2018-09-11T09:58:40.896Z,47.94
2018-09-11T10:01:15.345Z,47.76
2018-09-11T10:03:44.623Z,47.75
2018-09-11T10:06:13.715Z,47.65
2018-09-11T10:08:42.838Z,47.98
2018-09-11T10:11:11.903Z,47.77
2018-09-11T10:13:41.004Z,47.82
2018-09-11T10:16:10.223Z,47.82
2018-09-11T10:18:39.391Z,48.03
2018-09-11T10:21:08.519Z,47.96
2018-09-11T10:23:37.580Z,47.89
2018-09-11T10:26:06.791Z,47.71
2018-09-11T10:28:35.847Z,47.67
2018-09-11T10:31:04.975Z,47.94
2018-09-11T10:33:34.111Z,48.11
2018-09-11T10:36:03.384Z,47.62
2018-09-11T10:38:32.476Z,47.94
2018-09-11T10:41:01.579Z,47.67
2018-09-11T10:43:30.688Z,47.68
2018-09-11T10:45:59.887Z,47.69
2018-09-11T10:48:28.987Z,47.71
2018-09-11T10:50:58.075Z,47.45
2018-09-11T10:53:27.258Z,47.69
2018-09-11T10:55:56.314Z,47.47
2018-09-11T10:58:25.401Z,47.42
2018-09-11T11:00:54.571Z,47.83
2018-09-11T11:03:23.754Z,47.75
2018-09-11T11:05:52.864Z,47.53
2018-09-11T11:08:22.194Z,47.88
2018-09-11T11:10:51.347Z,47.81
2018-09-11T11:13:20.448Z,47.75
2018-09-11T11:15:49.672Z,47.63
2018-09-11T11:18:18.844Z,47.64
2018-09-11T11:20:47.953Z,47.71
2018-09-11T11:23:17.032Z,47.74
2018-09-11T11:25:46.139Z,47.61
2018-09-11T11:28:15.216Z,48.05
2018-09-11T11:30:44.316Z,47.53
2018-09-11T11:33:13.360Z,47.86
2018-09-11T11:35:42.604Z,47.98
2018-09-11T11:38:11.705Z,47.47
2018-09-11T11:40:40.805Z,47.73
2018-09-11T11:43:09.908Z,47.50
2018-09-11T11:45:39.050Z,47.81
2018-09-11T11:48:08.132Z,47.85
2018-09-11T11:50:37.484Z,47.74
2018-09-11T11:53:06.603Z,47.64
2018-09-11T11:55:36.049Z,47.75
2018-09-11T11:58:05.395Z,47.58
2018-09-11T12:00:34.787Z,47.96
2018-09-11T12:03:03.873Z,48.14
2018-09-11T12:05:32.980Z,48.17
2018-09-11T12:08:02.092Z,47.69
2018-09-11T12:10:31.293Z,48.18
2018-09-11T12:13:00.678Z,48.28
2018-09-11T12:15:29.794Z,48.35
2018-09-11T12:17:58.883Z,48.41
2018-09-11T12:20:27.940Z,48.67
2018-09-11T12:22:56.991Z,48.23
2018-09-11T12:25:26.242Z,48.22
2018-09-11T12:27:55.550Z,48.09
2018-09-11T12:30:24.652Z,48.02
2018-09-11T12:32:53.778Z,48.07
2018-09-11T12:35:22.853Z,47.79
2018-09-11T12:37:51.956Z,47.73
2018-09-11T12:40:21.056Z,48.20
2018-09-11T12:42:50.250Z,48.20
2018-09-11T12:45:19.326Z,47.91
2018-09-11T12:47:48.684Z,47.94
2018-09-11T12:50:17.750Z,47.97
2018-09-11T12:52:46.811Z,48.17
2018-09-11T12:55:15.919Z,47.82
2018-09-11T12:57:45.019Z,48.01
2018-09-11T13:00:14.130Z,48.46
2018-09-11T13:02:43.196Z,48.20
2018-09-11T13:05:12.394Z,47.82
2018-09-11T13:07:41.443Z,47.96
2018-09-11T13:10:10.597Z,48.56
2018-09-11T13:12:39.719Z,48.59
2018-09-11T13:15:08.852Z,48.01
2018-09-11T13:17:38.087Z,47.91
2018-09-11T13:20:07.204Z,47.84
2018-09-11T13:22:36.436Z,48.59
2018-09-11T13:25:05.652Z,48.25
2018-09-11T13:27:34.737Z,48.23
2018-09-11T13:30:03.969Z,48.25
2018-09-11T13:32:33.098Z,48.19
2018-09-11T13:35:02.283Z,48.44
2018-09-11T13:37:31.376Z,48.63
2018-09-11T13:40:00.650Z,48.11
2018-09-11T13:42:29.759Z,48.67
2018-09-11T13:44:58.988Z,48.53
2018-09-11T13:47:28.578Z,48.58
2018-09-11T13:49:58.028Z,48.75
2018-09-11T13:52:27.215Z,48.83
2018-09-11T13:54:56.299Z,48.92
2018-09-11T13:57:25.483Z,48.93
2018-09-11T13:59:57.052Z,48.35
2018-09-11T14:02:26.344Z,48.73
2018-09-11T14:04:55.594Z,48.94
2018-09-11T14:07:24.691Z,48.75
2018-09-11T14:09:53.884Z,48.87
2018-09-11T14:12:24.060Z,48.74
2018-09-11T14:14:53.186Z,48.62
2018-09-11T14:17:22.380Z,48.61
2018-09-11T14:19:51.589Z,48.90
2018-09-11T14:22:20.683Z,49.09
2018-09-11T14:24:49.833Z,48.80
2018-09-11T14:27:18.956Z,48.81
2018-09-11T14:29:48.044Z,48.82
2018-09-11T14:32:17.124Z,48.26
2018-09-11T14:34:46.377Z,48.34
2018-09-11T14:37:15.465Z,48.71
2018-09-11T14:39:44.749Z,48.76
2018-09-11T14:42:13.799Z,48.65
2018-09-11T14:44:42.929Z,48.57
2018-09-11T14:47:12.011Z,48.89
2018-09-11T14:49:41.079Z,48.68
2018-09-11T14:52:10.222Z,48.60
2018-09-11T14:54:39.647Z,49.27
2018-09-11T14:57:08.731Z,48.61
2018-09-11T14:59:37.891Z,48.51
2018-09-11T15:02:06.998Z,49.24
2018-09-11T15:04:36.101Z,48.95
2018-09-11T15:07:05.510Z,48.98
2018-09-11T15:09:34.623Z,48.51
2018-09-11T15:12:03.787Z,49.11
2018-09-11T15:14:32.871Z,48.57
2018-09-11T15:17:01.934Z,48.90
2018-09-11T15:19:31.083Z,48.42
2018-09-11T15:22:00.179Z,48.79
2018-09-11T15:24:29.245Z,48.51
2018-09-11T15:26:58.370Z,48.75
2018-09-11T15:29:27.456Z,48.51
2018-09-11T15:31:56.561Z,48.53
2018-09-11T15:34:25.647Z,48.66
2018-09-11T15:36:54.729Z,48.56
2018-09-11T15:39:23.917Z,48.64
2018-09-11T15:41:53.032Z,48.50
2018-09-11T15:44:22.298Z,48.91
2018-09-11T15:46:51.447Z,48.39
2018-09-11T15:49:20.474Z,48.53
2018-09-11T15:51:49.660Z,48.91
2018-09-11T15:54:18.835Z,48.87
2018-09-11T15:56:47.927Z,48.72
2018-09-11T15:59:17.068Z,49.00
2018-09-11T16:01:46.389Z,48.57
2018-09-11T16:04:15.572Z,48.62
2018-09-11T16:06:44.811Z,48.98
2018-09-11T16:09:14.249Z,48.85
2018-09-11T16:11:43.449Z,49.04
2018-09-11T16:14:12.749Z,49.04
2018-09-11T16:16:41.802Z,48.69
2018-09-11T16:19:11.017Z,49.42
2018-09-11T16:21:40.119Z,49.08
2018-09-11T16:24:09.220Z,48.94
2018-09-11T16:26:38.404Z,48.80
2018-09-11T16:29:07.481Z,48.80
2018-09-11T16:31:36.601Z,49.19
2018-09-11T16:34:05.703Z,49.64
2018-09-11T16:36:34.793Z,49.00
2018-09-11T16:39:05.372Z,48.81
2018-09-11T16:41:34.503Z,48.93
2018-09-11T16:44:03.804Z,49.03
2018-09-11T16:46:33.142Z,49.10
2018-09-11T16:49:02.512Z,49.05
2018-09-11T16:51:31.625Z,49.37
2018-09-11T16:54:03.795Z,49.33
2018-09-11T16:56:33.139Z,49.17
2018-09-11T16:59:02.353Z,48.89
2018-09-11T17:01:31.503Z,49.03
2018-09-11T17:04:00.617Z,48.82
2018-09-11T17:06:29.715Z,49.40
2018-09-11T17:08:58.772Z,49.27
2018-09-11T17:11:27.881Z,49.02
2018-09-11T17:13:56.993Z,49.11
2018-09-11T17:16:26.147Z,49.60
2018-09-11T17:18:55.240Z,49.28
2018-09-11T17:21:24.373Z,48.96
2018-09-11T17:23:53.469Z,49.02
2018-09-11T17:26:22.627Z,48.92
2018-09-11T17:28:51.750Z,49.01
2018-09-11T17:31:20.834Z,48.86
2018-09-11T17:33:49.934Z,48.80
2018-09-11T17:36:18.990Z,49.52
2018-09-11T17:38:48.110Z,48.92
2018-09-11T17:41:17.187Z,49.24
2018-09-11T17:43:46.320Z,49.14
2018-09-11T17:46:15.506Z,49.11
2018-09-11T17:48:44.651Z,49.00
2018-09-11T17:51:13.955Z,49.01
2018-09-11T17:53:43.103Z,49.17
2018-09-11T17:56:12.214Z,49.22
2018-09-11T17:58:41.753Z,49.15
2018-09-11T18:01:10.815Z,48.79
2018-09-11T18:03:40.066Z,49.05
2018-09-11T18:06:09.370Z,49.41
2018-09-11T18:08:38.491Z,48.90
2018-09-11T18:11:07.827Z,49.07
2018-09-11T18:13:36.917Z,49.22
2018-09-11T18:16:05.983Z,49.38
2018-09-11T18:18:35.186Z,49.30
2018-09-11T18:21:04.289Z,49.01
2018-09-11T18:23:33.427Z,49.09
2018-09-11T18:26:02.602Z,49.08
2018-09-11T18:28:31.680Z,48.91
2018-09-11T18:31:00.789Z,49.58
2018-09-11T18:33:30.121Z,49.51
2018-09-11T18:35:59.224Z,48.98
2018-09-11T18:38:28.401Z,48.96
2018-09-11T18:40:57.685Z,49.06
2018-09-11T18:43:26.868Z,49.15
2018-09-11T18:45:56.042Z,49.29
2018-09-11T18:48:25.293Z,49.32
2018-09-11T18:50:54.411Z,49.20
2018-09-11T18:53:23.561Z,48.98
2018-09-11T18:55:52.694Z,48.97
2018-09-11T18:58:21.875Z,49.49
2018-09-11T19:00:51.068Z,49.38
2018-09-11T19:03:20.189Z,49.31
2018-09-11T19:05:49.452Z,49.28
2018-09-11T19:08:18.562Z,49.40
2018-09-11T19:10:47.653Z,49.37
2018-09-11T19:13:16.849Z,49.46
2018-09-11T19:15:45.997Z,49.68
2018-09-11T19:18:15.086Z,49.77
2018-09-11T19:20:44.229Z,49.33
2018-09-11T19:23:13.375Z,49.38
2018-09-11T19:25:42.487Z,49.52
2018-09-11T19:28:11.644Z,49.48
2018-09-11T19:30:40.841Z,49.27
2018-09-11T19:33:10.030Z,49.80
2018-09-11T19:35:39.250Z,49.67
2018-09-11T19:38:08.527Z,49.86
2018-09-11T19:40:37.661Z,50.09
2018-09-11T19:43:06.829Z,49.88
2018-09-11T19:45:36.010Z,49.69
2018-09-11T19:48:05.233Z,49.85
2018-09-11T19:50:34.456Z,49.65
2018-09-11T19:53:03.828Z,49.39
2018-09-11T19:55:33.006Z,49.46
2018-09-11T19:58:02.153Z,49.42
2018-09-11T20:00:31.312Z,49.62
2018-09-11T20:03:00.430Z,49.56
2018-09-11T20:05:29.612Z,49.66
2018-09-11T20:07:58.721Z,49.49
2018-09-11T20:10:27.902Z,49.62
2018-09-11T20:12:56.997Z,49.46
2018-09-11T20:15:26.084Z,49.89
2018-09-11T20:17:55.819Z,50.16
2018-09-11T20:20:24.987Z,49.96
2018-09-11T20:22:54.075Z,49.80
2018-09-11T20:25:23.247Z,49.90
2018-09-11T20:27:52.502Z,50.06
2018-09-11T20:30:21.675Z,49.81
2018-09-11T20:32:50.920Z,49.70
2018-09-11T20:35:20.099Z,49.75
2018-09-11T20:37:49.321Z,49.90
2018-09-11T20:40:18.588Z,49.52
2018-09-11T20:42:47.688Z,49.48
2018-09-11T20:45:16.903Z,49.61
2018-09-11T20:47:46.182Z,49.64
2018-09-11T20:50:15.248Z,49.55
2018-09-11T20:52:44.374Z,49.87
2018-09-11T20:55:13.556Z,49.71
2018-09-11T20:57:42.644Z,49.75
2018-09-11T21:00:11.728Z,49.55
2018-09-11T21:02:40.804Z,49.64
2018-09-11T21:05:09.936Z,49.93
2018-09-11T21:07:38.996Z,50.04
2018-09-11T21:10:08.122Z,49.70
2018-09-11T21:12:37.183Z,49.93
2018-09-11T21:15:06.387Z,49.86
2018-09-11T21:17:35.547Z,49.76
2018-09-11T21:20:04.836Z,50.25
2018-09-11T21:22:33.948Z,50.29
2018-09-11T21:25:03.152Z,50.44
2018-09-11T21:27:32.228Z,50.15
2018-09-11T21:30:01.528Z,50.00
2018-09-11T21:32:30.600Z,50.31
2018-09-11T21:34:59.699Z,50.00
2018-09-11T21:37:28.796Z,50.15
2018-09-11T21:39:57.893Z,50.11
2018-09-11T21:42:27.027Z,50.05
2018-09-11T21:44:56.104Z,50.13
2018-09-11T21:47:25.207Z,50.41
2018-09-11T21:49:54.294Z,50.49
2018-09-11T21:52:23.589Z,50.47
2018-09-11T21:54:52.733Z,50.49
2018-09-11T21:57:21.899Z,50.68
2018-09-11T21:59:50.974Z,50.49
2018-09-11T22:02:20.088Z,51.25
2018-09-11T22:04:49.177Z,50.74
2018-09-11T22:07:18.247Z,50.64
2018-09-11T22:09:47.374Z,50.49
2018-09-11T22:12:16.471Z,51.03
2018-09-11T22:14:45.675Z,50.86
2018-09-11T22:17:14.907Z,50.99
2018-09-11T22:19:44.007Z,50.71
2018-09-11T22:22:13.077Z,50.87
2018-09-11T22:24:42.401Z,51.19
2018-09-11T22:27:11.668Z,50.77
2018-09-11T22:29:40.767Z,50.75
2018-09-11T22:32:09.919Z,50.78
2018-09-11T22:34:39.004Z,50.80
2018-09-11T22:37:08.159Z,50.91
2018-09-11T22:39:37.411Z,50.65
2018-09-11T22:42:06.559Z,50.84
2018-09-11T22:44:35.823Z,50.66
2018-09-11T22:47:05.036Z,50.57
2018-09-11T22:49:34.238Z,50.97
2018-09-11T22:52:03.638Z,50.51
2018-09-11T22:54:32.752Z,50.65
2018-09-11T22:57:01.867Z,50.62
2018-09-11T22:59:31.047Z,50.44
2018-09-11T23:02:00.153Z,50.90
2018-09-11T23:04:29.236Z,51.15
2018-09-11T23:06:58.337Z,50.60
2018-09-11T23:09:27.424Z,50.63
2018-09-11T23:11:56.579Z,50.88
2018-09-11T23:14:25.709Z,50.58
2018-09-11T23:16:54.900Z,50.91
2018-09-11T23:19:24.091Z,51.30
2018-09-11T23:21:53.167Z,50.99
2018-09-11T23:24:22.279Z,51.04
2018-09-11T23:26:51.403Z,50.96
2018-09-11T23:29:20.463Z,51.25
2018-09-11T23:31:49.569Z,51.01
2018-09-11T23:34:18.551Z,50.93
2018-09-11T23:36:47.671Z,50.94
2018-09-11T23:39:16.760Z,50.73
2018-09-11T23:41:45.975Z,51.14
2018-09-11T23:44:15.156Z,50.91
2018-09-11T23:46:44.223Z,51.03
2018-09-11T23:49:13.299Z,50.65
2018-09-11T23:51:42.355Z,50.66
2018-09-11T23:54:11.407Z,51.12
2018-09-11T23:56:40.531Z,50.76
2018-09-11T23:59:09.587Z,51.05
